Oakland, Arkansas
Current Conditions -  °F | °C
As of 10:53 PM on Friday 24 Oct 2014 (Local Time) from KBPK Reporting Station
Clear Clear  
Wind Chill: 60°   Ceiling: Unl
Heat Index: 60°   Visibility: 8mi
Dew Point: 58°   Wind: 5mph
Humidity: 93%   Direction: 190°S
Pressure: 30.07"   Gusts: NA
Location:  36.46°N, 92.57°W
Report Text: KBPK 250353Z AUTO 19004KT 8SM CLR 16/14 A3007 RMK AO2 SLP179 T01560144
Loading
Personal Weather Stations






























Interactive Weather Map
Tropical Storm Tracking
New forecast layout! Learn more

10-Day Weather Forecast

Advertisements
Track Severe Weather on mobile